createdAt,value
2023-04-01T00:00:28.676Z,0.43
2023-04-01T00:02:55.398Z,0.47
2023-04-01T00:05:23.552Z,0.43
2023-04-01T00:07:50.058Z,0.30
2023-04-01T00:10:16.832Z,0.40
2023-04-01T00:12:44.750Z,0.50
2023-04-01T00:15:12.905Z,0.30
2023-04-01T00:17:39.530Z,0.40
2023-04-01T00:20:07.859Z,0.30
2023-04-01T00:22:36.055Z,0.52
2023-04-01T00:25:02.933Z,0.60
2023-04-01T00:27:29.602Z,0.60
2023-04-01T00:29:56.323Z,0.50
2023-04-01T00:32:22.889Z,0.50
2023-04-01T00:34:51.201Z,0.35
2023-04-01T00:37:18.023Z,0.57
2023-04-01T00:39:46.069Z,0.38
2023-04-01T00:42:12.829Z,0.60
2023-04-01T00:44:39.731Z,0.35
2023-04-01T00:47:06.803Z,0.60
2023-04-01T00:49:38.456Z,0.52
2023-04-01T00:52:07.916Z,0.80
2023-04-01T00:54:36.904Z,0.57
2023-04-01T00:57:07.242Z,0.60
2023-04-01T00:59:36.587Z,0.50
2023-04-01T01:02:06.314Z,0.52
2023-04-01T01:04:34.753Z,0.52
2023-04-01T01:07:18.895Z,0.63
2023-04-01T01:09:53.402Z,0.43
2023-04-01T01:12:25.198Z,0.70
2023-04-01T01:17:38.322Z,0.75
2023-04-01T01:20:55.588Z,0.80
2023-04-01T01:23:43.502Z,0.28
2023-04-01T01:29:19.037Z,0.55
2023-04-01T01:31:57.395Z,0.50
2023-04-01T01:34:34.649Z,0.50
2023-04-01T01:37:09.501Z,0.38
2023-04-01T01:39:38.429Z,0.45
2023-04-01T01:42:09.227Z,0.65
2023-04-01T01:44:38.481Z,0.30
2023-04-01T01:47:06.520Z,0.35
2023-04-01T01:49:36.215Z,0.40
2023-04-01T01:52:04.394Z,0.30
2023-04-01T01:54:30.932Z,0.40
2023-04-01T01:57:05.441Z,0.20
2023-04-01T01:59:36.128Z,0.30
2023-04-01T02:02:04.432Z,0.38
2023-04-01T02:04:32.635Z,0.10
2023-04-01T02:07:03.672Z,0.20
2023-04-01T02:09:32.531Z,0.20
2023-04-01T02:12:03.511Z,0.20
2023-04-01T02:14:42.526Z,0.38
2023-04-01T02:17:12.861Z,0.45
2023-04-01T02:19:41.903Z,0.30
2023-04-01T02:22:12.728Z,0.50
2023-04-01T02:24:42.354Z,0.22
2023-04-01T02:27:10.397Z,0.35
2023-04-01T02:29:37.407Z,0.40
2023-04-01T02:32:09.740Z,0.30
2023-04-01T02:34:38.344Z,0.10
2023-04-01T02:37:05.239Z,0.40
2023-04-01T02:39:32.272Z,0.20
2023-04-01T02:42:00.426Z,0.30
2023-04-01T02:44:27.121Z,0.30
2023-04-01T02:46:53.968Z,0.30
2023-04-01T02:49:20.834Z,0.30
2023-04-01T02:51:47.429Z,0.55
2023-04-01T02:54:14.239Z,0.60
2023-04-01T02:56:41.687Z,0.20
2023-04-01T02:59:09.715Z,0.40
2023-04-01T03:01:36.389Z,0.28
2023-04-01T03:04:03.497Z,0.43
2023-04-01T03:06:30.241Z,0.40
2023-04-01T03:08:57.005Z,0.40
2023-04-01T03:11:23.596Z,0.40
2023-04-01T03:13:50.362Z,0.30
2023-04-01T03:16:18.429Z,0.30
2023-04-01T03:18:45.154Z,0.52
2023-04-01T03:21:16.712Z,0.40
2023-04-01T03:23:43.542Z,0.32
2023-04-01T03:26:10.162Z,0.45
2023-04-01T03:28:37.905Z,0.43
2023-04-01T03:31:04.622Z,0.40
2023-04-01T03:33:38.915Z,0.20
2023-04-01T03:36:08.930Z,0.30
2023-04-01T03:38:36.544Z,0.40
2023-04-01T03:41:03.571Z,0.50
2023-04-01T03:43:31.699Z,0.30
2023-04-01T03:45:58.324Z,0.35
2023-04-01T03:48:25.924Z,0.38
2023-04-01T03:50:53.894Z,0.30
2023-04-01T03:53:20.787Z,0.38
2023-04-01T03:55:48.134Z,0.43
2023-04-01T03:58:15.606Z,0.35
2023-04-01T04:00:42.181Z,0.20
2023-04-01T04:03:10.175Z,0.20
2023-04-01T04:05:36.903Z,0.20
2023-04-01T04:08:05.389Z,0.35
2023-04-01T04:10:32.658Z,0.20
2023-04-01T04:12:59.216Z,0.10
2023-04-01T04:15:29.343Z,0.20
2023-04-01T04:17:56.014Z,0.20
2023-04-01T04:20:22.937Z,0.30
2023-04-01T04:22:49.472Z,0.20
2023-04-01T04:25:17.487Z,0.10
2023-04-01T04:27:45.052Z,0.30
2023-04-01T04:30:14.088Z,0.20
2023-04-01T04:32:41.099Z,0.28
2023-04-01T04:35:08.626Z,0.30
2023-04-01T04:37:35.180Z,0.15
2023-04-01T04:40:01.783Z,0.20
2023-04-01T04:42:30.887Z,0.13
2023-04-01T04:45:05.027Z,0.20
2023-04-01T04:47:32.399Z,0.43
2023-04-01T04:49:58.978Z,0.20
2023-04-01T04:52:25.656Z,0.30
2023-04-01T04:54:52.275Z,0.20
2023-04-01T04:57:18.922Z,0.38
2023-04-01T04:59:54.248Z,0.20
2023-04-01T05:02:32.294Z,0.20
2023-04-01T05:04:58.896Z,0.28
2023-04-01T05:07:25.449Z,0.30
2023-04-01T05:09:52.097Z,0.25
2023-04-01T05:12:18.779Z,0.10
2023-04-01T05:14:57.478Z,0.13
2023-04-01T05:17:24.539Z,0.28
2023-04-01T05:19:51.103Z,0.20
2023-04-01T05:22:17.675Z,0.10
2023-04-01T05:24:44.510Z,0.40
2023-04-01T05:27:12.158Z,0.10
2023-04-01T05:29:40.452Z,0.20
2023-04-01T05:32:12.788Z,0.30
2023-04-01T05:34:39.406Z,0.32
2023-04-01T05:37:06.324Z,0.30
2023-04-01T05:39:36.451Z,0.20
2023-04-01T05:42:03.297Z,0.20
2023-04-01T05:44:30.134Z,0.10
2023-04-01T05:47:03.097Z,0.22
2023-04-01T05:49:31.504Z,0.10
2023-04-01T05:51:58.172Z,0.30
2023-04-01T05:54:25.175Z,0.32
2023-04-01T05:56:52.083Z,0.10
2023-04-01T05:59:20.241Z,0.20
2023-04-01T06:01:46.905Z,0.20
2023-04-01T06:04:18.173Z,0.22
2023-04-01T06:06:47.098Z,0.30
2023-04-01T06:09:16.658Z,0.20
2023-04-01T06:12:09.365Z,0.20
2023-04-01T06:14:50.993Z,0.30
2023-04-01T06:17:27.198Z,0.63
2023-04-01T06:20:03.544Z,0.32
2023-04-01T06:22:57.768Z,0.35
2023-04-01T06:25:38.145Z,0.25
2023-04-01T06:28:30.352Z,0.40
2023-04-01T06:31:04.638Z,0.20
2023-04-01T06:33:53.055Z,0.28
2023-04-01T06:36:47.554Z,0.30
2023-04-01T06:39:31.532Z,0.50
2023-04-01T06:42:14.342Z,0.63
2023-04-01T06:44:53.539Z,0.40
2023-04-01T06:47:51.765Z,0.38
2023-04-01T06:50:44.966Z,0.20
2023-04-01T06:53:35.883Z,0.30
2023-04-01T06:56:28.035Z,0.30
2023-04-01T06:59:05.607Z,0.38
2023-04-01T07:01:38.374Z,0.30
2023-04-01T07:04:10.743Z,0.40
2023-04-01T07:06:43.799Z,0.60
2023-04-01T07:09:14.528Z,0.40
2023-04-01T07:12:10.417Z,0.40
2023-04-01T07:15:04.160Z,0.75
2023-04-01T07:17:34.878Z,0.70
2023-04-01T07:20:06.212Z,0.65
2023-04-01T07:22:35.954Z,0.65
2023-04-01T07:25:24.914Z,0.70
2023-04-01T07:28:05.836Z,0.68
2023-04-01T07:30:45.384Z,0.60
2023-04-01T07:33:16.286Z,1.05
2023-04-01T07:35:48.794Z,1.20
2023-04-01T07:38:23.684Z,1.40
2023-04-01T07:40:59.510Z,1.45
2023-04-01T07:43:54.555Z,1.63
2023-04-01T07:46:47.487Z,2.00
2023-04-01T07:49:18.214Z,2.10
2023-04-01T07:51:53.181Z,2.10
2023-04-01T07:54:26.334Z,1.77
2023-04-01T07:57:02.149Z,2.38
2023-04-01T07:59:54.018Z,1.90
2023-04-01T08:02:36.682Z,1.83
2023-04-01T08:05:17.568Z,2.60
2023-04-01T08:07:51.992Z,2.08
2023-04-01T08:10:47.945Z,1.88
2023-04-01T08:13:41.247Z,2.10
2023-04-01T08:16:39.197Z,1.17
2023-04-01T08:19:18.908Z,1.60
2023-04-01T08:21:48.776Z,0.82
2023-04-01T08:24:37.149Z,0.80
2023-04-01T08:27:18.674Z,0.57
2023-04-01T08:29:52.264Z,0.70
2023-04-01T08:32:26.971Z,0.65
2023-04-01T08:35:08.311Z,0.73
2023-04-01T08:37:40.954Z,0.57
2023-04-01T08:40:28.406Z,0.50
2023-04-01T08:43:08.811Z,0.63
2023-04-01T08:45:53.133Z,0.50
2023-04-01T08:48:41.359Z,0.75
2023-04-01T08:51:33.760Z,0.40
2023-04-01T08:54:31.005Z,0.50
2023-04-01T08:57:09.049Z,0.50
2023-04-01T08:59:58.555Z,0.30
2023-04-01T09:03:21.983Z,0.70
2023-04-01T09:06:13.451Z,0.40
2023-04-01T09:08:53.528Z,0.53
2023-04-01T09:11:34.481Z,0.40
2023-04-01T09:14:30.307Z,0.95
2023-04-01T09:17:42.504Z,0.38
2023-04-01T09:20:40.392Z,0.60
2023-04-01T09:23:27.604Z,0.40
2023-04-01T09:26:08.425Z,0.45
2023-04-01T09:28:43.739Z,0.60
2023-04-01T09:31:37.508Z,0.50
2023-04-01T09:34:52.509Z,0.43
2023-04-01T09:37:24.508Z,0.35
2023-04-01T09:40:15.369Z,0.35
2023-04-01T09:42:55.129Z,0.47
2023-04-01T09:48:16.183Z,0.30
2023-04-01T09:50:51.377Z,0.40
2023-04-01T09:53:38.193Z,0.35
2023-04-01T09:56:41.415Z,0.50
2023-04-01T09:59:47.358Z,0.47
2023-04-01T10:02:56.389Z,0.40
2023-04-01T10:05:55.282Z,0.40
2023-04-01T10:08:46.939Z,0.55
2023-04-01T10:11:50.379Z,0.50
2023-04-01T10:14:33.296Z,0.40
2023-04-01T10:17:37.178Z,0.60
2023-04-01T10:20:30.671Z,0.50
2023-04-01T10:26:04.228Z,0.55
2023-04-01T10:28:45.460Z,0.40
2023-04-01T10:32:09.931Z,0.50
2023-04-01T10:35:09.472Z,0.60
2023-04-01T10:37:54.885Z,0.40
2023-04-01T10:40:38.760Z,0.63
2023-04-01T10:43:54.037Z,0.50
2023-04-01T10:46:42.833Z,0.70
2023-04-01T10:49:42.248Z,0.43
2023-04-01T10:52:32.948Z,0.50
2023-04-01T10:55:38.766Z,0.60
2023-04-01T10:59:05.293Z,0.45
2023-04-01T11:02:24.613Z,0.55
2023-04-01T11:05:50.099Z,0.40
2023-04-01T11:08:48.128Z,0.60
2023-04-01T11:12:08.823Z,0.70
2023-04-01T11:15:32.257Z,0.40
2023-04-01T11:18:50.752Z,0.50
2023-04-01T11:21:49.895Z,0.57
2023-04-01T11:25:11.426Z,0.60
2023-04-01T11:28:05.974Z,0.60
2023-04-01T11:30:48.869Z,0.45
2023-04-01T11:33:21.868Z,0.40
2023-04-01T11:36:00.243Z,0.50
2023-04-01T11:38:40.482Z,0.32
2023-04-01T11:41:42.742Z,0.50
2023-04-01T11:44:57.603Z,0.60
2023-04-01T11:47:53.150Z,0.35
2023-04-01T11:50:32.736Z,0.50
2023-04-01T11:53:19.736Z,0.40
2023-04-01T11:55:57.482Z,0.32
2023-04-01T11:58:43.298Z,0.40
2023-04-01T12:01:18.653Z,0.57
2023-04-01T12:04:25.007Z,0.50
2023-04-01T12:07:01.213Z,0.88
2023-04-01T12:09:38.703Z,0.50
2023-04-01T12:12:18.876Z,0.47
2023-04-01T12:14:54.580Z,0.50
2023-04-01T12:17:34.932Z,0.70
2023-04-01T12:20:23.091Z,0.50
2023-04-01T12:23:00.164Z,0.82
2023-04-01T12:25:48.238Z,0.75
2023-04-01T12:28:25.470Z,0.50
2023-04-01T12:31:03.652Z,0.50
2023-04-01T12:33:52.046Z,0.60
2023-04-01T12:36:33.400Z,0.60
2023-04-01T12:39:29.765Z,0.77
2023-04-01T12:42:06.177Z,0.50
2023-04-01T12:44:53.552Z,0.70
2023-04-01T12:47:45.978Z,0.47
2023-04-01T12:50:27.949Z,0.55
2023-04-01T12:53:15.125Z,0.65
2023-04-01T12:55:42.950Z,0.60
2023-04-01T12:58:33.438Z,0.60
2023-04-01T13:01:25.553Z,0.68
2023-04-01T13:06:51.086Z,0.47
2023-04-01T13:09:27.227Z,0.52
2023-04-01T13:12:17.522Z,0.50
2023-04-01T13:14:58.120Z,0.43
2023-04-01T13:17:35.269Z,0.60
2023-04-01T13:20:07.195Z,0.45
2023-04-01T13:22:50.124Z,0.63
2023-04-01T13:25:27.031Z,0.90
2023-04-01T13:28:01.299Z,0.60
2023-04-01T13:30:33.985Z,0.50
2023-04-01T13:33:07.094Z,0.50
2023-04-01T13:35:42.680Z,0.40
2023-04-01T13:38:50.605Z,0.40
2023-04-01T13:41:28.397Z,0.50
2023-04-01T13:44:03.087Z,0.57
2023-04-01T13:46:55.524Z,0.30
2023-04-01T13:49:45.900Z,0.50
2023-04-01T13:52:30.645Z,0.50
2023-04-01T13:55:21.743Z,0.65
2023-04-01T13:58:12.077Z,0.68
2023-04-01T14:00:54.291Z,0.85
2023-04-01T14:03:31.089Z,0.43
2023-04-01T14:06:07.266Z,0.60
2023-04-01T14:09:01.719Z,0.52
2023-04-01T14:11:37.257Z,0.80
2023-04-01T14:14:19.029Z,1.15
2023-04-01T14:16:59.743Z,0.70
2023-04-01T14:19:40.164Z,0.60
2023-04-01T14:22:19.247Z,0.40
2023-04-01T14:25:21.922Z,0.60
2023-04-01T14:27:58.007Z,0.52
2023-04-01T14:30:47.624Z,0.65
2023-04-01T14:33:29.749Z,0.57
2023-04-01T14:36:13.000Z,0.70
2023-04-01T14:39:01.557Z,0.60
2023-04-01T14:41:45.708Z,0.70
2023-04-01T14:44:24.711Z,0.93
2023-04-01T14:47:26.939Z,0.88
2023-04-01T14:50:05.074Z,0.63
2023-04-01T14:52:34.856Z,1.00
2023-04-01T14:55:02.240Z,0.60
2023-04-01T14:57:30.406Z,0.65
2023-04-01T15:00:02.396Z,0.80
2023-04-01T15:02:53.051Z,0.70
2023-04-01T15:05:33.212Z,0.82
2023-04-01T15:08:10.574Z,0.70
2023-04-01T15:10:50.230Z,0.60
2023-04-01T15:13:31.418Z,0.70
2023-04-01T15:16:10.288Z,0.70
2023-04-01T15:18:46.409Z,0.68
2023-04-01T15:21:24.115Z,0.60
2023-04-01T15:24:00.813Z,0.70
2023-04-01T15:26:39.969Z,0.60
2023-04-01T15:29:29.815Z,0.60
2023-04-01T15:32:02.147Z,1.45
2023-04-01T15:34:36.862Z,0.70
2023-04-01T15:37:14.832Z,0.90
2023-04-01T15:39:55.210Z,1.10
2023-04-01T15:42:42.509Z,0.70
2023-04-01T15:45:18.838Z,0.90
2023-04-01T15:47:54.389Z,0.85
2023-04-01T15:53:33.125Z,0.63
2023-04-01T15:56:15.640Z,0.82
2023-04-01T15:58:53.013Z,0.88
2023-04-01T16:01:30.026Z,1.17
2023-04-01T16:04:06.629Z,1.08
2023-04-01T16:06:51.713Z,0.90
2023-04-01T16:09:43.875Z,1.17
2023-04-01T16:12:17.211Z,1.05
2023-04-01T16:15:00.342Z,0.98
2023-04-01T16:17:39.919Z,1.00
2023-04-01T16:20:18.578Z,1.23
2023-04-01T16:22:54.165Z,1.30
2023-04-01T16:25:32.598Z,1.60
2023-04-01T16:28:16.047Z,1.23
2023-04-01T16:30:47.799Z,2.70
2023-04-01T16:38:22.238Z,1.05
2023-04-01T16:41:05.625Z,1.33
2023-04-01T16:43:41.988Z,2.78
2023-04-01T16:46:34.725Z,2.78
2023-04-01T16:49:15.006Z,1.40
2023-04-01T16:51:47.398Z,1.60
2023-04-01T16:54:26.893Z,1.70
2023-04-01T16:57:03.155Z,2.20
2023-04-01T16:59:36.630Z,1.77
2023-04-01T17:02:10.952Z,1.65
2023-04-01T17:04:42.042Z,1.60
2023-04-01T17:07:22.052Z,1.70
2023-04-01T17:10:03.140Z,1.35
2023-04-01T17:12:37.252Z,1.83
2023-04-01T17:15:14.955Z,1.80
2023-04-01T17:17:50.836Z,2.28
2023-04-01T17:20:32.758Z,1.73
2023-04-01T17:23:04.487Z,1.35
2023-04-01T17:25:46.574Z,1.33
2023-04-01T17:28:28.721Z,1.20
2023-04-01T17:31:03.519Z,1.00
2023-04-01T17:33:46.299Z,1.00
2023-04-01T17:36:23.224Z,1.27
2023-04-01T17:39:02.558Z,0.95
2023-04-01T17:41:43.455Z,1.48
2023-04-01T17:44:25.791Z,1.05
2023-04-01T17:47:11.370Z,1.15
2023-04-01T17:49:46.287Z,1.05
2023-04-01T17:52:25.441Z,0.98
2023-04-01T17:54:58.269Z,1.10
2023-04-01T17:57:37.930Z,1.25
2023-04-01T18:00:19.639Z,1.30
2023-04-01T18:02:58.170Z,1.70
2023-04-01T18:05:51.818Z,1.17
2023-04-01T18:08:34.121Z,1.23
2023-04-01T18:11:09.427Z,1.20
2023-04-01T18:13:59.315Z,1.10
2023-04-01T18:16:48.180Z,1.10
2023-04-01T18:19:21.596Z,1.50
2023-04-01T18:21:51.652Z,1.30
2023-04-01T18:24:25.821Z,1.50
2023-04-01T18:27:03.654Z,1.40
2023-04-01T18:29:40.271Z,1.10
2023-04-01T18:32:23.839Z,1.30
2023-04-01T18:34:58.465Z,1.55
2023-04-01T18:37:30.757Z,1.40
2023-04-01T18:40:04.694Z,1.58
2023-04-01T18:42:43.987Z,1.50
2023-04-01T18:45:20.968Z,1.30
2023-04-01T18:47:58.661Z,1.23
2023-04-01T18:50:29.340Z,1.80
2023-04-01T18:53:01.366Z,1.63
2023-04-01T18:55:37.894Z,1.45
2023-04-01T18:58:19.641Z,1.60
2023-04-01T19:00:52.742Z,1.30
2023-04-01T19:03:24.219Z,1.95
2023-04-01T19:05:53.143Z,1.55
2023-04-01T19:08:27.868Z,1.83
2023-04-01T19:11:05.956Z,1.52
2023-04-01T19:13:44.490Z,1.70
2023-04-01T19:16:22.211Z,1.67
2023-04-01T19:19:08.577Z,1.45
2023-04-01T19:21:40.381Z,1.42
2023-04-01T19:24:38.341Z,1.70
2023-04-01T19:27:15.621Z,1.63
2023-04-01T19:29:55.106Z,1.75
2023-04-01T19:32:31.365Z,1.80
2023-04-01T19:35:13.943Z,1.70
2023-04-01T19:37:42.142Z,1.75
2023-04-01T19:40:29.088Z,1.75
2023-04-01T19:43:03.490Z,2.53
2023-04-01T19:45:39.340Z,2.08
2023-04-01T19:48:18.172Z,2.30
2023-04-01T19:50:52.086Z,2.40
2023-04-01T19:53:28.890Z,2.30
2023-04-01T19:56:02.962Z,2.72
2023-04-01T19:58:38.141Z,2.95
2023-04-01T20:01:06.891Z,2.30
2023-04-01T20:03:43.458Z,2.45
2023-04-01T20:06:21.689Z,2.30
2023-04-01T20:09:00.233Z,2.50
2023-04-01T20:11:39.329Z,2.67
2023-04-01T20:14:15.886Z,2.95
2023-04-01T20:17:01.999Z,2.78
2023-04-01T20:19:38.716Z,2.80
2023-04-01T20:22:21.736Z,2.95
2023-04-01T20:24:49.767Z,2.30
2023-04-01T20:27:22.028Z,2.58
2023-04-01T20:30:02.518Z,2.42
2023-04-01T20:32:46.017Z,3.03
2023-04-01T20:35:37.382Z,2.85
2023-04-01T20:38:29.564Z,3.08
2023-04-01T20:41:03.937Z,3.10
2023-04-01T20:43:57.961Z,2.92
2023-04-01T20:46:31.576Z,2.63
2023-04-01T20:49:15.766Z,2.10
2023-04-01T20:51:47.877Z,2.40
2023-04-01T20:54:31.671Z,2.50
2023-04-01T20:57:06.261Z,2.15
2023-04-01T21:00:27.150Z,2.22
2023-04-01T21:03:10.019Z,2.17
2023-04-01T21:06:15.978Z,1.98
2023-04-01T21:09:00.248Z,1.90
2023-04-01T21:11:40.561Z,2.20
2023-04-01T21:14:34.846Z,1.90
2023-04-01T21:17:09.305Z,1.95
2023-04-01T21:19:57.052Z,2.20
2023-04-01T21:22:37.827Z,1.77
2023-04-01T21:25:18.913Z,1.77
2023-04-01T21:28:12.092Z,1.50
2023-04-01T21:30:52.658Z,2.00
2023-04-01T21:33:41.998Z,2.25
2023-04-01T21:36:20.218Z,2.15
2023-04-01T21:39:00.920Z,2.25
2023-04-01T21:41:40.055Z,2.10
2023-04-01T21:44:38.003Z,1.80
2023-04-01T21:47:32.382Z,1.75
2023-04-01T21:50:28.881Z,1.80
2023-04-01T21:53:34.922Z,1.95
2023-04-01T21:56:49.439Z,1.95
2023-04-01T22:00:08.799Z,2.20
2023-04-01T22:03:26.166Z,2.03
2023-04-01T22:06:01.647Z,2.25
2023-04-01T22:08:40.743Z,1.90
2023-04-01T22:11:17.886Z,2.10
2023-04-01T22:13:50.980Z,2.40
2023-04-01T22:16:25.604Z,2.10
2023-04-01T22:19:01.184Z,2.13
2023-04-01T22:21:33.349Z,2.15
2023-04-01T22:24:07.695Z,2.28
2023-04-01T22:26:39.725Z,1.60
2023-04-01T22:29:12.179Z,1.40
2023-04-01T22:31:48.260Z,1.30
2023-04-01T22:34:20.415Z,1.30
2023-04-01T22:36:56.555Z,1.08
2023-04-01T22:39:51.610Z,1.10
2023-04-01T22:42:34.849Z,1.05
2023-04-01T22:45:17.407Z,1.73
2023-04-01T22:47:53.054Z,1.45
2023-04-01T22:50:22.729Z,1.50
2023-04-01T22:52:56.021Z,2.00
2023-04-01T22:55:26.534Z,2.25
2023-04-01T22:57:59.608Z,2.30
2023-04-01T23:00:30.874Z,1.77
2023-04-01T23:03:12.232Z,1.65
2023-04-01T23:05:45.636Z,1.35
2023-04-01T23:08:39.080Z,1.17
2023-04-01T23:11:08.785Z,1.55
2023-04-01T23:13:40.905Z,1.60
2023-04-01T23:16:09.811Z,1.48
2023-04-01T23:18:47.320Z,1.23
2023-04-01T23:21:18.738Z,1.63
2023-04-01T23:23:59.285Z,1.20
2023-04-01T23:26:34.098Z,1.30
2023-04-01T23:29:01.293Z,1.40
2023-04-01T23:31:30.973Z,1.52
2023-04-01T23:34:00.872Z,2.15
2023-04-01T23:36:28.975Z,1.15
2023-04-01T23:38:56.008Z,1.60
2023-04-01T23:41:25.756Z,1.80
2023-04-01T23:43:56.281Z,1.60
2023-04-01T23:46:23.520Z,1.60
2023-04-01T23:48:51.132Z,1.42
2023-04-01T23:51:23.059Z,1.65
2023-04-01T23:53:59.761Z,1.50
2023-04-01T23:56:35.302Z,1.95
2023-04-01T23:59:03.543Z,2.25
